Time;durP1;ratioP1;P1;durP2;ratioP2;P2;SDS_P1;SDS_P2;PMS_P1;PMS_P2;Temp;Humidity;BMP_temperature;BMP_pressure;BME280_temperature;BME280_humidity;BME280_pressure;Samples;Min_cycle;Max_cycle;Signal;HPM_P1;HPM_P2
2023/12/21 00:01:43;;;;;;;7.90;3.42;;;9.10;99.90;;;;;;4979867;28;89602;-32
2023/12/21 00:04:09;;;;;;;5.20;2.78;;;9.10;99.90;;;;;;4979077;28;89401;-32
2023/12/21 00:06:34;;;;;;;4.63;3.28;;;9.10;99.90;;;;;;4980152;28;90203;-29
2023/12/21 00:09:00;;;;;;;7.43;3.38;;;9.10;99.90;;;;;;4979689;28;90722;-30
2023/12/21 00:11:26;;;;;;;10.13;3.53;;;9.10;99.90;;;;;;4979547;28;89824;-31
2023/12/21 00:13:52;;;;;;;7.05;3.08;;;9.10;99.90;;;;;;4979650;28;89445;-29
2023/12/21 00:16:18;;;;;;;6.20;2.42;;;9.10;99.90;;;;;;4980389;28;89793;-31
2023/12/21 00:18:44;;;;;;;8.45;3.47;;;9.10;99.90;;;;;;4980218;28;90377;-31
2023/12/21 00:21:09;;;;;;;11.18;2.60;;;9.10;99.90;;;;;;4978363;28;90693;-29
2023/12/21 00:23:35;;;;;;;6.45;3.45;;;9.10;99.90;;;;;;4979753;28;89645;-29
2023/12/21 00:26:01;;;;;;;11.88;3.80;;;9.10;99.90;;;;;;4979367;28;89487;-29
2023/12/21 00:28:26;;;;;;;7.18;3.20;;;9.10;99.90;;;;;;4980077;28;89074;-30
2023/12/21 00:30:52;;;;;;;10.85;3.97;;;9.10;99.90;;;;;;4979197;28;89789;-31
2023/12/21 00:33:17;;;;;;;6.28;2.45;;;9.10;99.90;;;;;;4978703;28;90670;-30
2023/12/21 00:35:43;;;;;;;7.30;3.42;;;9.10;99.90;;;;;;4979649;28;89489;-28
2023/12/21 00:38:08;;;;;;;13.50;4.50;;;9.10;99.90;;;;;;4978645;28;90245;-31
2023/12/21 00:40:34;;;;;;;8.70;3.25;;;9.10;99.90;;;;;;4979391;28;89745;-30
2023/12/21 00:43:00;;;;;;;14.40;4.70;;;9.10;99.90;;;;;;4978857;28;89158;-29
2023/12/21 00:45:26;;;;;;;10.00;5.05;;;9.10;99.90;;;;;;4979340;28;90416;-28
2023/12/21 00:47:51;;;;;;;9.23;3.95;;;9.10;99.90;;;;;;4979326;28;91074;-30
2023/12/21 00:50:17;;;;;;;9.13;4.00;;;9.10;99.90;;;;;;4978379;28;89962;-30
2023/12/21 00:52:42;;;;;;;8.07;3.05;;;9.10;99.90;;;;;;4979534;28;90138;-28
2023/12/21 00:55:08;;;;;;;9.93;4.03;;;9.10;99.90;;;;;;4978926;28;88207;-29
2023/12/21 00:57:34;;;;;;;7.53;2.83;;;9.10;99.90;;;;;;4980056;28;89756;-29
2023/12/21 00:59:59;;;;;;;4.40;2.72;;;9.20;99.90;;;;;;4977758;28;89786;-30
2023/12/21 01:02:25;;;;;;;8.82;3.70;;;9.10;99.90;;;;;;4979806;28;89548;-30
2023/12/21 01:04:51;;;;;;;4.63;3.08;;;9.20;99.90;;;;;;4978855;28;90161;-28
2023/12/21 01:07:16;;;;;;;13.05;3.97;;;9.20;99.90;;;;;;4978762;28;90289;-30
2023/12/21 01:09:42;;;;;;;6.18;3.22;;;9.10;99.90;;;;;;4978684;28;90692;-28
2023/12/21 01:12:07;;;;;;;8.20;5.63;;;9.20;99.90;;;;;;4978446;28;91098;-28
2023/12/21 01:14:33;;;;;;;14.68;5.30;;;9.10;99.90;;;;;;4979669;28;90098;-32
2023/12/21 01:16:59;;;;;;;9.77;3.83;;;9.20;99.90;;;;;;4978494;28;90497;-28
2023/12/21 01:19:26;;;;;;;10.00;4.63;;;9.10;99.90;;;;;;4978016;28;89848;-32
2023/12/21 01:21:51;;;;;;;4.72;3.35;;;9.20;99.90;;;;;;4980043;28;88269;-29
2023/12/21 01:24:17;;;;;;;15.35;4.43;;;9.10;99.90;;;;;;4978190;28;89465;-30
2023/12/21 01:26:43;;;;;;;6.60;2.95;;;9.10;99.90;;;;;;4979388;28;91557;-31
2023/12/21 01:29:08;;;;;;;5.82;3.85;;;9.20;99.90;;;;;;4978095;28;89514;-29
2023/12/21 01:31:34;;;;;;;14.63;4.32;;;9.10;99.90;;;;;;4978816;28;89574;-29
2023/12/21 01:34:01;;;;;;;6.40;3.72;;;9.10;99.90;;;;;;4978218;28;90112;-29
2023/12/21 01:36:27;;;;;;;6.18;3.33;;;9.10;99.90;;;;;;4978673;28;89597;-29
2023/12/21 01:38:52;;;;;;;5.43;3.75;;;9.10;99.90;;;;;;4978914;28;89831;-31
2023/12/21 01:41:18;;;;;;;8.48;4.30;;;9.20;99.90;;;;;;4977629;28;89580;-31
2023/12/21 01:43:44;;;;;;;4.80;3.10;;;9.10;99.90;;;;;;4978621;28;88507;-30
2023/12/21 01:46:09;;;;;;;7.93;3.67;;;9.20;99.90;;;;;;4982268;28;91305;-30
2023/12/21 01:48:36;;;;;;;8.75;4.10;;;9.20;99.90;;;;;;4981839;28;89555;-28
2023/12/21 01:51:02;;;;;;;7.80;3.38;;;9.10;99.90;;;;;;4982374;28;90497;-29
2023/12/21 01:53:29;;;;;;;6.15;4.00;;;9.10;99.90;;;;;;4980316;28;88326;-30
2023/12/21 01:55:55;;;;;;;5.85;3.38;;;9.10;99.90;;;;;;4981325;28;90295;-28
2023/12/21 01:58:23;;;;;;;14.50;4.13;;;9.10;99.90;;;;;;4981401;28;89845;-31
2023/12/21 02:00:49;;;;;;;7.47;3.08;;;9.10;99.90;;;;;;4982122;28;90015;-28
2023/12/21 02:03:15;;;;;;;9.15;3.70;;;9.10;99.90;;;;;;4981575;28;87671;-28
2023/12/21 02:05:41;;;;;;;8.75;3.95;;;9.10;99.90;;;;;;4982036;28;90367;-29
2023/12/21 02:08:07;;;;;;;12.35;3.28;;;9.10;99.90;;;;;;4980775;28;89764;-27
2023/12/21 02:10:32;;;;;;;13.30;5.72;;;9.10;99.90;;;;;;4981634;28;90299;-27
2023/12/21 02:12:58;;;;;;;11.65;4.43;;;9.10;99.90;;;;;;4981685;28;89448;-29
2023/12/21 02:15:24;;;;;;;11.43;3.80;;;9.10;99.90;;;;;;4981704;28;89885;-29
2023/12/21 02:17:52;;;;;;;6.93;3.42;;;9.10;99.90;;;;;;4981568;28;90583;-31
2023/12/21 02:20:19;;;;;;;9.70;2.97;;;9.10;99.90;;;;;;4981636;28;90452;-30
2023/12/21 02:22:49;;;;;;;12.50;5.15;;;9.10;99.90;;;;;;4979187;28;88502;-28
2023/12/21 02:25:15;;;;;;;10.38;3.70;;;9.10;99.90;;;;;;4981004;28;89141;-30
2023/12/21 02:27:40;;;;;;;6.55;3.15;;;9.10;99.90;;;;;;4981730;28;89543;-31
2023/12/21 02:30:06;;;;;;;4.78;3.67;;;9.10;99.90;;;;;;4980294;28;90182;-33
2023/12/21 02:32:32;;;;;;;5.57;3.42;;;9.10;99.90;;;;;;4981648;28;88556;-31
2023/12/21 02:34:58;;;;;;;6.40;2.42;;;9.10;99.90;;;;;;4981280;28;89888;-30
2023/12/21 02:37:23;;;;;;;8.70;4.40;;;9.10;99.90;;;;;;4980752;28;90114;-29
2023/12/21 02:39:49;;;;;;;10.73;3.60;;;9.10;99.90;;;;;;4981905;28;89375;-30
2023/12/21 02:42:15;;;;;;;14.77;4.00;;;9.10;99.90;;;;;;4980713;28;89953;-28
2023/12/21 02:44:40;;;;;;;6.50;3.13;;;9.10;99.90;;;;;;4981142;28;90372;-28
2023/12/21 02:47:06;;;;;;;9.90;4.13;;;9.10;99.90;;;;;;4980475;28;90564;-28
2023/12/21 02:49:31;;;;;;;8.25;3.65;;;9.10;99.90;;;;;;4981065;28;90609;-29
2023/12/21 02:51:57;;;;;;;5.43;3.70;;;9.10;99.90;;;;;;4981082;28;89709;-31
2023/12/21 02:54:23;;;;;;;4.65;3.00;;;9.20;99.90;;;;;;4980482;28;90182;-29
2023/12/21 02:56:48;;;;;;;7.97;3.63;;;9.20;99.90;;;;;;4979786;28;89697;-29
2023/12/21 02:59:14;;;;;;;17.10;4.85;;;9.10;99.90;;;;;;4980504;28;89634;-28
2023/12/21 03:01:41;;;;;;;8.45;3.30;;;9.20;99.90;;;;;;4981521;28;89014;-29
2023/12/21 03:04:07;;;;;;;7.22;3.15;;;9.10;99.90;;;;;;4980915;28;90315;-30
2023/12/21 03:06:32;;;;;;;9.40;2.92;;;9.10;99.90;;;;;;4979171;28;89818;-29
2023/12/21 03:08:58;;;;;;;14.88;3.72;;;9.20;99.90;;;;;;4980339;28;90513;-31
2023/12/21 03:11:25;;;;;;;10.45;4.95;;;9.20;99.90;;;;;;4980360;28;88915;-31
2023/12/21 03:13:50;;;;;;;8.18;3.28;;;9.10;99.90;;;;;;4981143;28;89833;-28
2023/12/21 03:16:18;;;;;;;17.67;2.95;;;9.10;99.90;;;;;;4978824;28;89535;-29
2023/12/21 03:18:44;;;;;;;6.28;3.47;;;9.10;99.90;;;;;;4980111;28;89547;-29
2023/12/21 03:21:10;;;;;;;5.95;3.28;;;9.10;99.90;;;;;;4980642;28;89404;-29
2023/12/21 03:23:36;;;;;;;5.30;3.85;;;9.10;99.90;;;;;;4980484;28;90211;-31
2023/12/21 03:26:01;;;;;;;7.88;4.40;;;9.10;99.90;;;;;;4979998;28;89660;-30
2023/12/21 03:28:27;;;;;;;5.15;2.72;;;9.10;99.90;;;;;;4980538;28;89916;-31
2023/12/21 03:30:53;;;;;;;7.55;3.30;;;9.10;99.90;;;;;;4980378;28;90189;-31
2023/12/21 03:33:18;;;;;;;6.07;2.72;;;9.10;99.90;;;;;;4979877;28;90553;-30
2023/12/21 03:35:44;;;;;;;3.80;3.10;;;9.10;99.90;;;;;;4979978;28;90666;-30
2023/12/21 03:38:09;;;;;;;5.57;3.47;;;9.10;99.90;;;;;;4980163;28;90299;-30
2023/12/21 03:40:35;;;;;;;3.53;2.65;;;9.10;99.90;;;;;;4980288;28;89080;-31
2023/12/21 03:43:01;;;;;;;2.72;2.17;;;9.10;99.90;;;;;;4979607;28;88225;-30
2023/12/21 03:45:26;;;;;;;5.88;3.15;;;9.00;99.90;;;;;;4980061;28;89779;-32
2023/12/21 03:47:52;;;;;;;6.20;3.75;;;9.10;99.90;;;;;;4981047;28;90595;-30
2023/12/21 03:50:17;;;;;;;5.07;2.55;;;9.10;99.90;;;;;;4979774;28;89074;-31
2023/12/21 03:52:43;;;;;;;8.25;2.80;;;9.00;99.90;;;;;;4980333;28;90385;-29
2023/12/21 03:55:09;;;;;;;7.03;3.00;;;9.10;99.90;;;;;;4978916;28;90406;-32
2023/12/21 03:57:35;;;;;;;6.70;2.38;;;9.10;99.90;;;;;;4980535;28;89809;-29
2023/12/21 04:00:01;;;;;;;8.20;2.88;;;9.10;99.90;;;;;;4979875;28;89613;-28
2023/12/21 04:02:26;;;;;;;2.63;1.80;;;9.10;99.90;;;;;;4980237;28;90312;-28
2023/12/21 04:04:52;;;;;;;6.75;2.60;;;9.10;99.90;;;;;;4979324;28;89504;-30
2023/12/21 04:07:18;;;;;;;13.38;3.60;;;9.10;99.90;;;;;;4979526;28;90751;-29
2023/12/21 04:09:43;;;;;;;4.03;2.40;;;9.10;99.90;;;;;;4979869;28;88673;-29
2023/12/21 04:12:09;;;;;;;2.88;2.03;;;9.10;99.90;;;;;;4979849;28;89956;-30
2023/12/21 04:14:34;;;;;;;4.00;2.92;;;9.10;99.90;;;;;;4979575;28;89366;-32
2023/12/21 04:17:00;;;;;;;9.82;2.55;;;9.10;99.90;;;;;;4980071;28;90180;-30
2023/12/21 04:19:26;;;;;;;8.50;2.92;;;9.10;99.90;;;;;;4978946;28;89476;-31
2023/12/21 04:21:52;;;;;;;3.53;3.10;;;9.10;99.90;;;;;;4979949;28;90126;-31
2023/12/21 04:24:18;;;;;;;4.60;3.35;;;9.10;99.90;;;;;;4978790;28;89577;-28
2023/12/21 04:26:44;;;;;;;4.82;2.65;;;9.10;99.90;;;;;;4980099;28;90561;-32
2023/12/21 04:29:09;;;;;;;4.03;2.92;;;9.10;99.90;;;;;;4978860;28;89330;-30
2023/12/21 04:31:35;;;;;;;3.63;3.00;;;9.10;99.90;;;;;;4961200;28;89918;-32
2023/12/21 04:34:01;;;;;;;6.90;4.07;;;9.10;99.90;;;;;;4979550;28;88443;-29
2023/12/21 04:36:27;;;;;;;3.63;2.30;;;9.10;99.90;;;;;;4979564;28;90004;-28
2023/12/21 04:38:55;;;;;;;13.68;3.35;;;9.10;99.90;;;;;;4979868;28;88184;-34
2023/12/21 04:41:21;;;;;;;2.85;2.65;;;9.10;99.90;;;;;;4979356;28;90744;-32
2023/12/21 04:43:46;;;;;;;4.35;3.03;;;9.10;99.90;;;;;;4978489;28;89457;-31
2023/12/21 04:46:12;;;;;;;9.50;3.25;;;9.10;99.90;;;;;;4979487;28;90393;-30
2023/12/21 04:48:37;;;;;;;7.72;2.60;;;9.10;99.90;;;;;;4978798;28;90546;-30
2023/12/21 04:51:03;;;;;;;10.95;3.78;;;9.10;99.90;;;;;;4979294;28;90240;-30
2023/12/21 04:53:29;;;;;;;4.75;3.63;;;9.10;99.90;;;;;;4979100;28;89906;-29
2023/12/21 04:55:54;;;;;;;8.93;4.38;;;9.10;99.90;;;;;;4972696;28;88834;-28
2023/12/21 04:58:20;;;;;;;9.52;3.25;;;9.20;99.90;;;;;;4979187;28;88104;-32
2023/12/21 05:00:50;;;;;;;5.70;2.20;;;9.20;99.90;;;;;;4979640;28;90303;-29
2023/12/21 05:03:18;;;;;;;4.88;2.50;;;9.20;99.90;;;;;;4978424;28;89157;-29
2023/12/21 05:05:43;;;;;;;5.50;3.28;;;9.20;99.90;;;;;;4978322;28;89640;-30
2023/12/21 05:08:09;;;;;;;5.10;4.10;;;9.20;99.90;;;;;;4979287;28;89115;-31
2023/12/21 05:10:34;;;;;;;5.82;3.13;;;9.10;99.90;;;;;;4978378;28;89787;-31
2023/12/21 05:13:00;;;;;;;10.35;3.00;;;9.20;99.90;;;;;;4978189;28;90352;-29
2023/12/21 05:15:25;;;;;;;6.95;2.70;;;9.20;99.90;;;;;;4978642;28;89759;-32
2023/12/21 05:17:51;;;;;;;4.88;2.15;;;9.20;99.90;;;;;;4978560;28;89107;-32
2023/12/21 05:20:17;;;;;;;4.40;2.20;;;9.10;99.90;;;;;;4977795;28;90141;-30
2023/12/21 05:22:42;;;;;;;7.68;2.65;;;9.10;99.90;;;;;;4978086;28;88455;-30
2023/12/21 05:25:08;;;;;;;3.53;3.15;;;9.20;99.90;;;;;;4980022;28;89900;-28
2023/12/21 05:27:34;;;;;;;4.72;3.28;;;9.20;99.90;;;;;;4978737;28;88835;-29
2023/12/21 05:29:59;;;;;;;3.90;2.53;;;9.20;99.90;;;;;;4978836;28;88932;-29
2023/12/21 05:32:25;;;;;;;3.72;2.80;;;9.10;99.90;;;;;;4978226;28;89556;-31
2023/12/21 05:34:50;;;;;;;4.63;1.98;;;9.10;99.90;;;;;;4978725;28;90224;-31
2023/12/21 05:37:16;;;;;;;6.25;2.88;;;9.10;99.90;;;;;;4978280;28;89988;-30
2023/12/21 05:39:44;;;;;;;2.88;2.55;;;9.10;99.90;;;;;;4977459;28;88810;-29
2023/12/21 05:42:10;;;;;;;10.48;2.30;;;9.10;99.90;;;;;;4978182;28;89672;-30
2023/12/21 05:44:35;;;;;;;3.25;2.47;;;9.10;99.90;;;;;;4978353;28;89487;-28
2023/12/21 05:47:01;;;;;;;4.75;2.30;;;9.10;99.90;;;;;;4978584;28;89005;-29
2023/12/21 05:49:27;;;;;;;3.20;2.53;;;9.10;99.90;;;;;;4979150;28;90555;-31
2023/12/21 05:51:52;;;;;;;6.03;2.78;;;9.10;99.90;;;;;;4978130;28;90662;-30
2023/12/21 05:54:18;;;;;;;4.55;3.08;;;9.10;99.90;;;;;;4978858;28;90909;-32
2023/12/21 05:56:43;;;;;;;4.65;3.33;;;9.10;99.90;;;;;;4978389;28;89472;-31
2023/12/21 05:59:10;;;;;;;8.02;3.25;;;9.20;99.90;;;;;;4978073;28;89075;-30
2023/12/21 06:01:36;;;;;;;8.80;2.78;;;9.10;99.90;;;;;;4978464;28;89191;-32
2023/12/21 06:04:02;;;;;;;3.08;2.45;;;9.10;99.90;;;;;;4976334;28;90088;-31
2023/12/21 06:06:28;;;;;;;6.10;3.25;;;9.20;99.90;;;;;;4979059;28;89005;-29
2023/12/21 06:08:53;;;;;;;8.77;2.28;;;9.10;99.90;;;;;;4978089;28;90673;-31
2023/12/21 06:11:19;;;;;;;2.80;1.95;;;9.10;99.90;;;;;;4978645;28;90101;-29
2023/12/21 06:13:44;;;;;;;9.18;3.50;;;9.20;99.90;;;;;;4978858;28;89782;-31
2023/12/21 06:16:11;;;;;;;6.78;2.95;;;9.10;99.90;;;;;;4977852;28;88205;-28
2023/12/21 06:18:39;;;;;;;3.60;3.15;;;9.20;99.90;;;;;;4979077;28;90265;-28
2023/12/21 06:21:05;;;;;;;7.97;3.17;;;9.20;99.90;;;;;;4977692;28;90413;-29
2023/12/21 06:23:30;;;;;;;5.20;2.15;;;9.20;99.90;;;;;;4977977;28;89148;-28
2023/12/21 06:25:56;;;;;;;6.47;2.55;;;9.20;99.90;;;;;;4977648;28;89436;-32
2023/12/21 06:28:22;;;;;;;4.75;2.17;;;9.20;99.90;;;;;;4977869;28;90222;-29
2023/12/21 06:30:47;;;;;;;2.55;2.20;;;9.20;99.90;;;;;;4980094;28;89600;-28
2023/12/21 06:33:13;;;;;;;5.85;2.63;;;9.20;99.90;;;;;;4981607;28;89124;-31
2023/12/21 06:35:39;;;;;;;3.47;2.00;;;9.20;99.90;;;;;;4980934;28;88055;-28
2023/12/21 06:38:06;;;;;;;3.45;2.10;;;9.20;99.90;;;;;;4981676;28;89969;-31
2023/12/21 06:40:32;;;;;;;5.90;2.28;;;9.20;99.90;;;;;;4980979;28;89056;-32
2023/12/21 06:42:57;;;;;;;6.28;2.63;;;9.20;99.90;;;;;;4980875;28;90015;-32
2023/12/21 06:45:23;;;;;;;6.60;3.67;;;9.30;99.90;;;;;;4981694;28;89590;-29
2023/12/21 06:47:49;;;;;;;3.85;2.28;;;9.30;99.90;;;;;;4979862;28;90029;-28
2023/12/21 06:50:15;;;;;;;11.93;4.13;;;9.30;99.90;;;;;;4980720;28;91170;-30
2023/12/21 06:52:40;;;;;;;9.60;3.83;;;9.30;99.90;;;;;;4981827;28;89614;-30
2023/12/21 06:55:07;;;;;;;5.00;2.78;;;9.30;99.90;;;;;;4980695;28;88930;-31
2023/12/21 06:57:32;;;;;;;5.55;2.20;;;9.30;99.90;;;;;;4981315;28;90280;-28
2023/12/21 06:59:58;;;;;;;6.82;2.53;;;9.30;99.90;;;;;;4980452;28;88625;-29
2023/12/21 07:02:23;;;;;;;3.90;2.63;;;9.30;99.90;;;;;;4981686;28;89960;-28
2023/12/21 07:04:49;;;;;;;8.93;4.35;;;9.30;99.90;;;;;;4980952;28;89927;-30
2023/12/21 07:07:14;;;;;;;2.72;2.15;;;9.30;99.90;;;;;;4981650;28;90254;-28
2023/12/21 07:09:41;;;;;;;5.57;1.80;;;9.30;99.90;;;;;;4980757;28;89913;-29
2023/12/21 07:12:07;;;;;;;15.70;3.03;;;9.40;99.90;;;;;;4980026;28;89735;-29
2023/12/21 07:14:32;;;;;;;3.42;2.53;;;9.30;99.90;;;;;;4980998;28;89393;-33
2023/12/21 07:16:58;;;;;;;5.85;2.42;;;9.30;99.90;;;;;;4980640;28;90338;-31
2023/12/21 07:19:23;;;;;;;6.90;2.42;;;9.30;99.90;;;;;;4981085;28;90053;-29
2023/12/21 07:21:49;;;;;;;9.85;1.90;;;9.30;99.90;;;;;;4980244;28;90664;-29
2023/12/21 07:24:14;;;;;;;5.68;1.90;;;9.30;99.90;;;;;;4980203;28;89181;-28
2023/12/21 07:26:40;;;;;;;3.40;1.50;;;9.30;99.90;;;;;;4981051;28;91479;-29
2023/12/21 07:29:06;;;;;;;6.57;2.13;;;9.30;99.90;;;;;;4979834;28;89882;-29
2023/12/21 07:31:31;;;;;;;5.65;2.08;;;9.30;99.90;;;;;;4979909;28;89128;-31
2023/12/21 07:33:57;;;;;;;5.43;1.88;;;9.30;99.90;;;;;;4979447;28;88864;-31
2023/12/21 07:36:22;;;;;;;4.63;2.22;;;9.30;99.90;;;;;;4974590;28;90248;-29
2023/12/21 07:38:48;;;;;;;1.02;1.02;;;9.30;99.90;;;;;;4979823;28;90090;-29
2023/12/21 07:41:14;;;;;;;2.63;1.40;;;9.30;99.90;;;;;;5027270;22;90820;-30
2023/12/21 07:43:41;;;;;;;2.75;2.05;;;9.30;99.90;;;;;;4980136;28;88883;-29
2023/12/21 07:46:08;;;;;;;1.63;1.17;;;9.30;99.90;;;;;;4979499;28;90615;-31
2023/12/21 07:48:34;;;;;;;4.93;1.80;;;9.30;99.90;;;;;;4979856;28;90308;-32
2023/12/21 07:51:00;;;;;;;4.70;1.00;;;9.30;99.90;;;;;;4980328;28;89978;-31
2023/12/21 07:53:25;;;;;;;3.15;1.63;;;9.30;99.90;;;;;;4980324;28;89989;-30
2023/12/21 07:55:51;;;;;;;1.73;1.52;;;9.30;99.90;;;;;;4980901;28;90328;-30
2023/12/21 07:58:18;;;;;;;1.45;1.35;;;9.30;99.90;;;;;;4980097;28;88678;-30
2023/12/21 08:00:43;;;;;;;1.65;1.55;;;9.30;99.90;;;;;;4979498;28;89586;-32
2023/12/21 08:03:09;;;;;;;1.73;1.48;;;9.30;99.90;;;;;;4980251;28;88899;-31
2023/12/21 08:05:34;;;;;;;1.98;1.83;;;9.30;99.90;;;;;;4979902;28;91043;-29
2023/12/21 08:08:00;;;;;;;4.20;1.98;;;9.40;99.90;;;;;;4980028;28;89270;-31
2023/12/21 08:10:25;;;;;;;2.63;2.10;;;9.40;99.90;;;;;;4979456;28;89451;-30
2023/12/21 08:12:51;;;;;;;2.83;1.25;;;9.30;99.90;;;;;;4980409;28;89881;-29
2023/12/21 08:15:16;;;;;;;2.33;1.40;;;9.40;99.90;;;;;;4979563;28;89967;-29
2023/12/21 08:17:47;;;;;;;1.90;1.45;;;9.30;99.90;;;;;;4980053;28;89104;-30
2023/12/21 08:20:12;;;;;;;1.50;1.08;;;9.40;99.90;;;;;;4978885;28;89419;-31
2023/12/21 08:22:38;;;;;;;3.00;1.45;;;9.30;99.90;;;;;;4979900;28;89144;-29
2023/12/21 08:25:04;;;;;;;1.35;1.25;;;9.30;99.90;;;;;;4978250;28;90352;-32
2023/12/21 08:27:29;;;;;;;2.83;1.00;;;9.30;99.90;;;;;;4979092;28;91130;-31
2023/12/21 08:29:55;;;;;;;3.42;1.50;;;9.40;99.90;;;;;;4978837;28;91143;-31
2023/12/21 08:32:21;;;;;;;1.20;1.10;;;9.40;99.90;;;;;;4980068;28;89175;-31
2023/12/21 08:34:46;;;;;;;2.95;1.77;;;9.30;99.90;;;;;;4979161;28;91212;-31
2023/12/21 08:37:15;;;;;;;1.13;1.02;;;9.40;99.90;;;;;;4978975;28;89758;-31
2023/12/21 08:39:40;;;;;;;1.05;0.88;;;9.40;99.90;;;;;;4978906;28;89415;-29
2023/12/21 08:42:10;;;;;;;1.55;1.45;;;9.40;99.90;;;;;;4980277;28;87601;-31
2023/12/21 08:44:37;;;;;;;2.60;1.67;;;9.40;99.90;;;;;;4979773;28;90309;-31
2023/12/21 08:47:04;;;;;;;0.80;0.80;;;9.40;99.90;;;;;;4971500;28;89305;-29
2023/12/21 08:49:30;;;;;;;1.13;0.98;;;9.40;99.90;;;;;;4978947;28;90047;-33
2023/12/21 08:51:55;;;;;;;0.88;0.70;;;9.40;99.90;;;;;;4978919;28;89896;-30
2023/12/21 08:54:21;;;;;;;1.38;0.90;;;9.40;99.90;;;;;;4977956;28;90306;-32
2023/12/21 08:56:48;;;;;;;0.93;0.93;;;9.40;99.90;;;;;;4979267;28;89970;-31
2023/12/21 08:59:13;;;;;;;1.10;1.00;;;9.40;99.90;;;;;;4973337;28;89164;-32
2023/12/21 09:01:39;;;;;;;2.25;1.10;;;9.40;99.90;;;;;;4977538;28;89961;-29
2023/12/21 09:04:05;;;;;;;1.20;1.10;;;9.40;99.90;;;;;;4972496;28;90307;-32
2023/12/21 09:06:31;;;;;;;1.63;1.52;;;9.40;99.90;;;;;;4974692;28;90031;-29
2023/12/21 09:08:58;;;;;;;1.23;0.80;;;9.40;99.90;;;;;;4972923;28;90431;-29
2023/12/21 09:11:24;;;;;;;1.30;1.20;;;9.40;99.90;;;;;;4976273;28;89198;-32
2023/12/21 09:13:49;;;;;;;1.20;1.08;;;9.40;99.90;;;;;;4975517;28;88960;-31
2023/12/21 09:16:17;;;;;;;1.42;1.20;;;9.40;99.90;;;;;;4974287;28;90862;-29
2023/12/21 09:18:43;;;;;;;1.08;0.98;;;9.50;99.90;;;;;;4977080;28;88518;-30
2023/12/21 09:21:10;;;;;;;1.50;1.00;;;9.50;99.90;;;;;;4975701;28;89198;-31
2023/12/21 09:23:35;;;;;;;2.95;1.27;;;9.60;99.90;;;;;;4976589;28;90108;-31
2023/12/21 09:26:01;;;;;;;4.22;1.50;;;9.50;99.90;;;;;;4975894;28;89882;-32
2023/12/21 09:28:27;;;;;;;3.72;2.45;;;9.60;99.90;;;;;;4975963;28;89628;-29
2023/12/21 09:30:52;;;;;;;3.88;1.88;;;9.60;99.90;;;;;;4969996;28;88621;-34
2023/12/21 09:33:18;;;;;;;1.02;0.93;;;9.60;99.90;;;;;;4976584;28;90139;-30
2023/12/21 09:35:44;;;;;;;2.05;1.55;;;9.60;99.90;;;;;;4974115;28;89878;-29
2023/12/21 09:38:10;;;;;;;2.03;1.27;;;9.70;99.90;;;;;;4976197;28;88777;-30
2023/12/21 09:40:36;;;;;;;4.03;2.78;;;9.70;99.90;;;;;;4976174;28;89565;-28
2023/12/21 09:43:05;;;;;;;1.00;0.90;;;9.70;99.90;;;;;;4975914;28;91463;-30
2023/12/21 09:45:31;;;;;;;2.30;1.23;;;9.70;99.90;;;;;;4976081;28;88756;-29
2023/12/21 09:47:58;;;;;;;6.25;0.90;;;9.70;99.90;;;;;;4974610;28;89778;-31
2023/12/21 09:50:25;;;;;;;2.70;1.25;;;9.70;99.90;;;;;;4976870;28;88387;-31
2023/12/21 09:52:51;;;;;;;2.45;1.35;;;9.80;99.90;;;;;;4976832;28;90356;-31
2023/12/21 09:55:18;;;;;;;1.33;1.23;;;9.80;99.90;;;;;;4975547;28;89581;-28
2023/12/21 09:57:45;;;;;;;1.48;1.13;;;9.90;99.90;;;;;;4976449;28;88927;-29
2023/12/21 10:00:11;;;;;;;2.30;1.70;;;9.90;99.90;;;;;;4975862;28;88808;-29
2023/12/21 10:02:37;;;;;;;4.57;1.85;;;9.90;99.90;;;;;;4976228;28;90782;-32
2023/12/21 10:05:05;;;;;;;3.35;1.40;;;10.00;99.90;;;;;;4975404;28;90517;-29
2023/12/21 10:07:31;;;;;;;2.28;2.05;;;10.00;99.90;;;;;;4979759;28;90509;-30
2023/12/21 10:10:00;;;;;;;4.30;1.80;;;10.00;99.90;;;;;;4978866;28;89282;-28
2023/12/21 10:12:25;;;;;;;2.05;1.45;;;10.00;99.90;;;;;;4978303;28;90706;-32
2023/12/21 10:15:01;;;;;;;4.07;1.75;;;10.00;99.90;;;;;;4979476;28;89968;-30
2023/12/21 10:17:26;;;;;;;3.53;1.63;;;10.10;99.90;;;;;;4979041;28;89322;-33
2023/12/21 10:19:52;;;;;;;1.88;1.42;;;10.10;99.90;;;;;;4978664;28;89430;-31
2023/12/21 10:22:19;;;;;;;5.32;2.58;;;10.10;99.90;;;;;;4979283;28;90563;-31
2023/12/21 10:24:47;;;;;;;3.85;1.67;;;10.10;99.90;;;;;;4979032;28;89652;-30
2023/12/21 10:27:13;;;;;;;;;;;10.10;99.90;;;;;;4978193;28;89229;-31
2023/12/21 10:29:40;;;;;;;2.50;1.95;;;10.20;99.90;;;;;;4974941;28;90743;-29
2023/12/21 10:32:05;;;;;;;5.25;2.50;;;10.20;99.90;;;;;;4978767;28;90214;-31
2023/12/21 10:34:31;;;;;;;6.45;2.53;;;10.20;99.90;;;;;;4977511;28;90613;-32
2023/12/21 10:37:00;;;;;;;6.07;1.90;;;10.20;99.90;;;;;;4978699;28;89755;-32
2023/12/21 10:39:27;;;;;;;5.10;1.85;;;10.20;99.90;;;;;;4978651;28;88608;-30
2023/12/21 10:41:56;;;;;;;6.15;2.85;;;10.20;99.90;;;;;;4978182;28;91186;-35
2023/12/21 10:44:22;;;;;;;8.50;2.60;;;10.20;99.90;;;;;;4978297;28;89907;-31
2023/12/21 10:46:48;;;;;;;6.47;2.83;;;10.20;99.90;;;;;;4978932;28;89538;-32
2023/12/21 10:49:16;;;;;;;4.97;1.75;;;10.30;99.90;;;;;;4976640;28;89855;-32
2023/12/21 10:51:43;;;;;;;7.55;2.90;;;10.30;99.90;;;;;;4971881;28;90485;-31
2023/12/21 10:54:11;;;;;;;4.78;2.63;;;10.40;99.90;;;;;;4978280;28;90697;-29
2023/12/21 10:56:42;;;;;;;4.90;2.70;;;10.40;99.90;;;;;;4976521;28;89156;-32
2023/12/21 10:59:09;;;;;;;8.35;2.30;;;10.40;99.90;;;;;;4979328;28;88052;-29
2023/12/21 11:01:37;;;;;;;4.47;2.20;;;10.30;99.90;;;;;;4978633;28;90323;-28
2023/12/21 11:04:03;;;;;;;4.93;2.50;;;10.30;99.90;;;;;;4977971;28;91372;-31
2023/12/21 11:06:32;;;;;;;4.88;2.47;;;10.40;99.90;;;;;;4978225;28;89283;-30
2023/12/21 11:08:58;;;;;;;6.32;2.25;;;10.40;99.90;;;;;;4978811;28;88922;-32
2023/12/21 11:11:26;;;;;;;8.95;3.22;;;10.50;99.90;;;;;;4978346;28;90089;-28
2023/12/21 11:13:56;;;;;;;11.75;2.42;;;10.60;99.90;;;;;;4978730;28;90007;-32
2023/12/21 11:16:50;;;;;;;5.25;2.55;;;10.50;99.90;;;;;;4977013;28;91373;-31
2023/12/21 11:19:22;;;;;;;2.80;1.70;;;10.50;99.90;;;;;;4970702;28;90760;-31
2023/12/21 11:21:48;;;;;;;5.68;2.13;;;10.40;99.90;;;;;;4977018;28;90556;-31
2023/12/21 11:24:21;;;;;;;6.45;2.65;;;10.40;99.90;;;;;;4976973;28;89772;-33
2023/12/21 11:26:48;;;;;;;6.82;2.80;;;10.50;99.90;;;;;;4977736;28;89471;-30
2023/12/21 11:29:14;;;;;;;9.40;3.25;;;10.40;99.90;;;;;;4977680;28;88965;-29
2023/12/21 11:31:41;;;;;;;4.05;2.90;;;10.40;99.90;;;;;;4978457;28;90408;-30
2023/12/21 11:34:19;;;;;;;21.98;2.95;;;10.40;99.90;;;;;;4971513;28;89810;-31
2023/12/21 11:36:46;;;;;;;15.23;4.85;;;10.40;99.90;;;;;;4978723;28;89771;-30
2023/12/21 11:39:15;;;;;;;6.35;2.65;;;10.40;99.90;;;;;;4977001;28;89307;-34
2023/12/21 11:41:56;;;;;;;12.27;2.47;;;10.40;99.90;;;;;;4977462;28;90127;-30
2023/12/21 11:44:23;;;;;;;9.93;2.65;;;10.40;99.90;;;;;;4977047;28;90572;-31
2023/12/21 11:46:49;;;;;;;6.35;2.97;;;10.40;99.90;;;;;;4976623;28;90406;-31
2023/12/21 11:49:24;;;;;;;13.02;2.60;;;10.40;99.90;;;;;;4976729;28;88631;-33
2023/12/21 11:51:51;;;;;;;8.07;3.08;;;10.50;99.90;;;;;;4977068;28;91406;-34
2023/12/21 11:54:24;;;;;;;6.38;2.53;;;10.40;99.90;;;;;;4977510;28;89255;-31
2023/12/21 11:56:55;;;;;;;5.13;2.58;;;10.40;99.90;;;;;;4976321;28;90123;-33
2023/12/21 11:59:27;;;;;;;10.98;3.17;;;10.40;99.90;;;;;;4979935;28;90095;-29
2023/12/21 12:01:53;;;;;;;6.85;3.00;;;10.40;99.90;;;;;;4979624;28;90253;-33
2023/12/21 12:04:18;;;;;;;6.97;2.58;;;10.40;99.90;;;;;;4979297;28;90228;-32
2023/12/21 12:06:46;;;;;;;7.30;2.67;;;10.40;99.90;;;;;;4979177;28;89341;-32
2023/12/21 12:09:12;;;;;;;10.17;5.07;;;10.40;99.90;;;;;;4979123;28;90004;-30
2023/12/21 12:11:38;;;;;;;12.75;4.90;;;10.40;99.90;;;;;;4979153;28;90559;-33
2023/12/21 12:14:04;;;;;;;24.83;3.67;;;10.40;99.90;;;;;;4979793;28;89573;-28
2023/12/21 12:16:32;;;;;;;5.63;2.10;;;10.40;99.90;;;;;;4979314;28;89534;-31
2023/12/21 12:18:58;;;;;;;7.68;2.28;;;10.40;99.90;;;;;;4979302;28;88992;-31
2023/12/21 12:21:24;;;;;;;25.27;5.30;;;10.40;99.90;;;;;;4979455;28;90595;-31
2023/12/21 12:23:50;;;;;;;6.90;3.08;;;10.40;99.90;;;;;;4978969;28;90068;-32
2023/12/21 12:26:16;;;;;;;10.38;3.42;;;10.40;99.90;;;;;;4979218;28;89715;-29
2023/12/21 12:28:44;;;;;;;7.95;4.00;;;10.40;99.90;;;;;;4979751;28;89759;-32
2023/12/21 12:31:11;;;;;;;7.35;3.60;;;10.50;99.90;;;;;;4976683;28;91342;-32
2023/12/21 12:33:38;;;;;;;5.47;2.67;;;10.50;99.90;;;;;;4976690;28;90893;-29
2023/12/21 12:36:05;;;;;;;8.60;2.83;;;10.50;99.90;;;;;;4978569;28;90027;-32
2023/12/21 12:38:30;;;;;;;5.65;3.00;;;10.50;99.90;;;;;;4979145;28;90164;-31
2023/12/21 12:40:59;;;;;;;15.27;4.65;;;10.50;99.90;;;;;;4977097;28;90607;-29
2023/12/21 12:43:30;;;;;;;19.98;4.97;;;10.60;99.90;;;;;;4978383;28;89503;-33
2023/12/21 12:45:56;;;;;;;8.07;2.05;;;10.60;99.90;;;;;;4976217;28;91126;-31
2023/12/21 12:48:22;;;;;;;5.65;3.72;;;10.70;99.90;;;;;;4979949;28;87979;-29